createdAt,value
2023-04-20T00:00:36.280Z,48.75
2023-04-20T00:03:03.552Z,48.73
2023-04-20T00:05:32.072Z,48.45
2023-04-20T00:07:59.088Z,48.23
2023-04-20T00:10:25.600Z,48.64
2023-04-20T00:12:52.093Z,48.25
2023-04-20T00:15:18.638Z,48.63
2023-04-20T00:17:45.453Z,48.05
2023-04-20T00:20:12.204Z,47.79
2023-04-20T00:22:38.568Z,47.73
2023-04-20T00:25:05.505Z,47.67
2023-04-20T00:27:31.937Z,47.88
2023-04-20T00:29:58.469Z,47.94
2023-04-20T00:32:24.900Z,47.60
2023-04-20T00:34:51.297Z,47.48
2023-04-20T00:37:17.679Z,46.87
2023-04-20T00:39:44.050Z,47.19
2023-04-20T00:42:10.436Z,47.23
2023-04-20T00:44:38.266Z,47.39
2023-04-20T00:47:07.521Z,47.72
2023-04-20T00:49:34.004Z,48.10
2023-04-20T00:52:01.055Z,48.51
2023-04-20T00:54:30.097Z,48.73
2023-04-20T00:56:58.028Z,48.94
2023-04-20T00:59:24.471Z,49.29
2023-04-20T01:01:51.177Z,49.41
2023-04-20T01:04:18.658Z,49.77
2023-04-20T01:06:45.367Z,49.60
2023-04-20T01:09:12.450Z,49.81
2023-04-20T01:11:39.372Z,50.11
2023-04-20T01:14:06.473Z,50.42
2023-04-20T01:16:34.878Z,50.96
2023-04-20T01:19:01.483Z,51.66
2023-04-20T01:21:28.131Z,52.02
2023-04-20T01:23:54.545Z,52.28
2023-04-20T01:26:23.473Z,52.68
2023-04-20T01:28:50.228Z,53.17
2023-04-20T01:31:17.316Z,53.49
2023-04-20T01:33:43.791Z,53.88
2023-04-20T01:36:10.640Z,54.06
2023-04-20T01:38:37.371Z,54.38
2023-04-20T01:41:06.862Z,54.45
2023-04-20T01:43:34.710Z,54.52
2023-04-20T01:46:01.618Z,54.33
2023-04-20T01:48:28.020Z,54.20
2023-04-20T01:50:54.473Z,54.44
2023-04-20T01:53:21.142Z,54.68
2023-04-20T01:55:50.401Z,54.17
2023-04-20T01:58:16.925Z,54.23
2023-04-20T02:00:44.149Z,53.73
2023-04-20T02:03:11.231Z,54.01
2023-04-20T02:05:37.775Z,53.84
2023-04-20T02:08:04.371Z,53.85
2023-04-20T02:10:30.840Z,53.77
2023-04-20T02:12:57.395Z,53.74
2023-04-20T02:15:23.883Z,53.59
2023-04-20T02:17:53.045Z,53.44
2023-04-20T02:20:22.744Z,53.40
2023-04-20T02:22:49.172Z,53.46
2023-04-20T02:25:15.838Z,53.29
2023-04-20T02:27:42.518Z,53.34
2023-04-20T02:30:10.375Z,53.81
2023-04-20T02:32:36.900Z,53.76
2023-04-20T02:35:06.918Z,53.10
2023-04-20T02:37:33.468Z,52.73
2023-04-20T02:39:59.835Z,52.61
2023-04-20T02:42:26.297Z,52.78
2023-04-20T02:44:52.800Z,52.79
2023-04-20T02:47:19.682Z,52.52
2023-04-20T02:49:47.213Z,51.97
2023-04-20T02:52:13.717Z,51.24
2023-04-20T02:54:40.078Z,51.35
2023-04-20T02:57:06.565Z,51.23
2023-04-20T02:59:32.987Z,50.73
2023-04-20T03:01:59.547Z,50.40
2023-04-20T03:04:27.610Z,50.29
2023-04-20T03:06:54.290Z,50.06
2023-04-20T03:09:21.286Z,49.88
2023-04-20T03:11:47.800Z,49.04
2023-04-20T03:14:14.243Z,49.32
2023-04-20T03:16:41.551Z,49.61
2023-04-20T03:19:08.185Z,49.43
2023-04-20T03:21:34.816Z,49.10
2023-04-20T03:24:01.400Z,49.02
2023-04-20T03:26:28.030Z,49.04
2023-04-20T03:28:54.485Z,49.34
2023-04-20T03:31:21.276Z,49.02
2023-04-20T03:33:47.909Z,49.73
2023-04-20T03:36:14.468Z,50.25
2023-04-20T03:38:40.853Z,50.52
2023-04-20T03:41:08.351Z,50.63
2023-04-20T03:43:35.227Z,50.47
2023-04-20T03:46:01.842Z,50.63
2023-04-20T03:48:28.339Z,50.52
2023-04-20T03:50:54.774Z,50.53
2023-04-20T03:53:21.133Z,50.43
2023-04-20T03:55:47.575Z,50.61
2023-04-20T03:58:13.932Z,50.51
2023-04-20T04:00:40.323Z,50.57
2023-04-20T04:03:06.873Z,50.75
2023-04-20T04:05:33.512Z,51.17
2023-04-20T04:08:00.156Z,52.94
2023-04-20T04:10:27.215Z,52.96
2023-04-20T04:12:53.587Z,53.51
2023-04-20T04:15:20.196Z,54.02
2023-04-20T04:17:46.732Z,54.36
2023-04-20T04:20:13.477Z,54.40
2023-04-20T04:22:41.080Z,54.53
2023-04-20T04:25:07.878Z,54.62
2023-04-20T04:27:34.707Z,54.83
2023-04-20T04:30:03.166Z,55.12
2023-04-20T04:32:30.059Z,54.64
2023-04-20T04:34:56.516Z,55.41
2023-04-20T04:37:23.094Z,55.43
2023-04-20T04:39:50.963Z,55.58
2023-04-20T04:42:17.492Z,55.94
2023-04-20T04:44:44.872Z,55.97
2023-04-20T04:47:11.848Z,55.67
2023-04-20T04:49:40.625Z,55.74
2023-04-20T04:52:08.401Z,56.88
2023-04-20T04:54:34.818Z,57.93
2023-04-20T04:57:01.521Z,58.92
2023-04-20T04:59:27.949Z,59.84
2023-04-20T05:01:55.476Z,60.82
2023-04-20T05:04:22.154Z,61.91
2023-04-20T05:06:48.581Z,64.03
2023-04-20T05:09:16.253Z,65.43
2023-04-20T05:11:43.792Z,66.94
2023-04-20T05:14:10.236Z,67.77
2023-04-20T05:16:36.695Z,69.33
2023-04-20T05:19:03.935Z,69.57
2023-04-20T05:21:30.790Z,70.10
2023-04-20T05:23:58.449Z,69.72
2023-04-20T05:26:25.004Z,70.07
2023-04-20T05:28:51.472Z,70.64
2023-04-20T05:31:17.983Z,71.35
2023-04-20T05:33:44.442Z,71.26
2023-04-20T05:36:10.875Z,71.31
2023-04-20T05:38:37.816Z,72.25
2023-04-20T05:41:04.777Z,71.06
2023-04-20T05:43:31.131Z,71.38
2023-04-20T05:45:57.620Z,71.26
2023-04-20T05:48:27.797Z,71.20
2023-04-20T05:50:55.594Z,69.86
2023-04-20T05:53:22.331Z,69.67
2023-04-20T05:55:48.876Z,69.52
2023-04-20T05:58:15.645Z,68.89
2023-04-20T06:00:42.155Z,68.47
2023-04-20T06:03:08.806Z,67.94
2023-04-20T06:05:35.683Z,67.59
2023-04-20T06:08:02.285Z,67.47
2023-04-20T06:10:32.314Z,67.34
2023-04-20T06:12:58.782Z,68.67
2023-04-20T06:15:25.285Z,67.48
2023-04-20T06:17:51.764Z,68.18
2023-04-20T06:20:19.659Z,67.48
2023-04-20T06:22:46.846Z,67.87
2023-04-20T06:25:13.823Z,68.48
2023-04-20T06:27:41.362Z,69.57
2023-04-20T06:32:35.916Z,70.40
2023-04-20T06:35:03.096Z,71.01
2023-04-20T06:37:29.933Z,71.28
2023-04-20T06:39:56.312Z,71.73
2023-04-20T06:42:22.700Z,71.85
2023-04-20T06:44:49.072Z,71.80
2023-04-20T06:47:15.442Z,72.92
2023-04-20T06:49:41.889Z,73.68
2023-04-20T06:52:08.258Z,75.03
2023-04-20T06:54:34.752Z,76.14
2023-04-20T06:57:01.524Z,76.37
2023-04-20T07:46:31.845Z,76.60
2023-04-20T07:48:58.351Z,76.07
2023-04-20T07:51:24.849Z,73.87
2023-04-20T07:53:51.340Z,74.68
2023-04-20T07:56:17.781Z,74.42
2023-04-20T07:58:44.251Z,73.84
2023-04-20T08:01:11.282Z,73.24
2023-04-20T08:03:38.268Z,71.43
2023-04-20T08:06:05.448Z,71.63
2023-04-20T08:08:32.157Z,70.39
2023-04-20T08:10:58.757Z,69.71
2023-04-20T08:13:25.944Z,68.96
2023-04-20T08:15:52.662Z,68.75
2023-04-20T08:18:21.208Z,68.47
2023-04-20T08:20:47.971Z,68.99
2023-04-20T08:23:14.517Z,68.99
2023-04-20T08:25:41.153Z,68.51
2023-04-20T08:28:11.929Z,67.58
2023-04-20T08:30:42.141Z,67.52
2023-04-20T08:33:08.669Z,67.32
2023-04-20T08:35:35.543Z,67.61
2023-04-20T08:38:02.091Z,67.02
2023-04-20T08:40:30.403Z,66.93
2023-04-20T08:42:57.490Z,67.11
2023-04-20T08:45:24.489Z,66.85
2023-04-20T08:47:52.357Z,66.62
2023-04-20T08:50:22.840Z,66.69
2023-04-20T08:52:49.406Z,66.20
2023-04-20T08:55:17.459Z,66.04
2023-04-20T08:57:44.578Z,65.11
2023-04-20T09:00:13.894Z,64.39
2023-04-20T09:02:54.658Z,63.81
2023-04-20T09:05:27.117Z,63.03
2023-04-20T09:07:55.823Z,61.52
2023-04-20T09:10:24.191Z,60.11
2023-04-20T09:12:54.306Z,58.78
2023-04-20T09:15:28.427Z,59.01
2023-04-20T09:17:55.710Z,58.32
2023-04-20T09:20:33.769Z,57.21
2023-04-20T09:23:21.215Z,56.56
2023-04-20T09:25:53.008Z,56.69
2023-04-20T09:28:20.671Z,57.00
2023-04-20T09:30:49.387Z,58.41
2023-04-20T09:33:15.975Z,58.59
2023-04-20T09:35:43.642Z,59.89
2023-04-20T09:38:11.751Z,61.04
2023-04-20T09:40:38.535Z,62.49
2023-04-20T09:43:15.381Z,62.55
2023-04-20T09:45:42.832Z,62.43
2023-04-20T09:48:10.506Z,62.01
2023-04-20T09:50:48.620Z,60.68
2023-04-20T09:53:19.549Z,60.97
2023-04-20T09:55:50.339Z,60.76
2023-04-20T09:58:21.342Z,61.22
2023-04-20T10:00:48.505Z,67.40
2023-04-20T10:03:19.893Z,74.19
2023-04-20T10:05:46.947Z,75.48
2023-04-20T10:08:14.033Z,76.38
2023-04-20T10:10:51.325Z,73.62
2023-04-20T10:13:22.015Z,72.43
2023-04-20T10:15:48.903Z,67.85
2023-04-20T10:18:25.104Z,66.83
2023-04-20T10:21:04.116Z,65.15
2023-04-20T10:23:30.596Z,62.16
2023-04-20T10:25:59.222Z,60.07
2023-04-20T10:28:26.202Z,56.93
2023-04-20T10:30:53.788Z,58.87
2023-04-20T10:33:20.804Z,60.02
2023-04-20T10:35:54.631Z,58.07
2023-04-20T10:38:33.912Z,59.52
2023-04-20T10:41:07.142Z,59.38
2023-04-20T10:43:35.363Z,58.00
2023-04-20T10:46:01.976Z,59.19
2023-04-20T10:48:28.523Z,59.28
2023-04-20T10:50:55.150Z,60.66
2023-04-20T10:53:23.246Z,58.64
2023-04-20T10:56:01.916Z,60.51
2023-04-20T10:58:28.492Z,60.22
2023-04-20T11:01:02.983Z,61.03
2023-04-20T11:03:31.246Z,60.46
2023-04-20T11:06:01.413Z,60.43
2023-04-20T11:08:41.825Z,60.32
2023-04-20T11:11:21.671Z,60.48
2023-04-20T11:13:48.606Z,60.70
2023-04-20T11:16:16.761Z,59.94
2023-04-20T11:18:52.363Z,58.60
2023-04-20T11:21:19.666Z,54.93
2023-04-20T11:23:46.554Z,51.88
2023-04-20T11:26:13.034Z,56.31
2023-04-20T11:28:52.811Z,58.13
2023-04-20T11:31:21.322Z,58.17
2023-04-20T11:33:47.958Z,57.76
2023-04-20T11:36:24.978Z,57.51
2023-04-20T11:38:51.460Z,57.46
2023-04-20T11:41:18.614Z,56.34
2023-04-20T11:43:46.139Z,54.93
2023-04-20T11:46:15.053Z,52.56
2023-04-20T11:48:41.562Z,52.79
2023-04-20T11:51:08.410Z,50.93
2023-04-20T11:53:34.937Z,51.22
2023-04-20T11:56:01.416Z,51.57
2023-04-20T11:58:27.865Z,51.95
2023-04-20T12:00:54.437Z,51.91
2023-04-20T12:03:21.705Z,48.77
2023-04-20T12:05:48.684Z,45.77
2023-04-20T12:08:17.181Z,49.89
2023-04-20T12:10:43.849Z,47.94
2023-04-20T12:13:10.829Z,48.43
2023-04-20T12:15:37.433Z,46.42
2023-04-20T12:18:04.076Z,49.75
2023-04-20T12:20:30.634Z,45.89
2023-04-20T12:22:58.987Z,47.16
2023-04-20T12:25:25.854Z,47.58
2023-04-20T12:27:52.395Z,47.13
2023-04-20T12:30:19.176Z,46.42
2023-04-20T12:32:45.700Z,46.46
2023-04-20T12:35:12.316Z,45.98
2023-04-20T12:37:39.029Z,48.68
2023-04-20T12:40:07.292Z,48.00
2023-04-20T12:42:33.864Z,47.59
2023-04-20T12:45:00.490Z,48.50
2023-04-20T12:47:27.236Z,47.40
2023-04-20T12:49:55.078Z,47.45
2023-04-20T12:52:21.664Z,45.33
2023-04-20T12:54:48.135Z,45.03
2023-04-20T12:57:14.805Z,43.92
2023-04-20T12:59:41.638Z,45.03
2023-04-20T13:02:08.453Z,45.59
2023-04-20T13:04:36.388Z,46.31
2023-04-20T13:07:03.175Z,46.87
2023-04-20T13:09:30.104Z,44.20
2023-04-20T13:11:57.807Z,44.85
2023-04-20T13:14:24.504Z,42.25
2023-04-20T13:16:52.912Z,41.55
2023-04-20T13:19:21.126Z,42.57
2023-04-20T13:21:47.626Z,42.01
2023-04-20T13:24:14.199Z,39.82
2023-04-20T13:26:40.736Z,40.58
2023-04-20T13:29:07.251Z,44.09
2023-04-20T13:31:33.970Z,46.36
2023-04-20T13:34:00.638Z,46.70
2023-04-20T13:36:28.251Z,46.62
2023-04-20T13:38:55.815Z,46.01
2023-04-20T13:41:23.717Z,42.33
2023-04-20T13:43:50.770Z,40.30
2023-04-20T13:46:17.835Z,39.30
2023-04-20T13:48:44.383Z,37.36
2023-04-20T13:51:10.985Z,37.50
2023-04-20T13:53:37.526Z,39.21
2023-04-20T13:56:05.017Z,37.90
2023-04-20T13:58:31.595Z,37.63
2023-04-20T14:00:58.164Z,38.92
2023-04-20T14:03:26.183Z,36.88
2023-04-20T14:05:53.103Z,39.41
2023-04-20T14:08:20.784Z,41.00
2023-04-20T14:10:47.262Z,41.52
2023-04-20T14:13:13.735Z,42.50
2023-04-20T14:15:41.608Z,40.44
2023-04-20T14:18:08.277Z,37.91
2023-04-20T14:20:35.126Z,35.90
2023-04-20T14:23:01.688Z,34.62
2023-04-20T14:25:28.337Z,34.34
2023-04-20T14:27:54.886Z,34.63
2023-04-20T14:30:21.720Z,35.03
2023-04-20T14:32:59.255Z,37.45
2023-04-20T14:35:27.612Z,38.90
2023-04-20T14:37:54.445Z,40.62
2023-04-20T14:40:21.176Z,41.22
2023-04-20T14:42:47.769Z,41.57
2023-04-20T14:45:14.308Z,40.33
2023-04-20T14:47:41.282Z,39.03
2023-04-20T14:50:09.345Z,37.30
2023-04-20T14:52:36.228Z,37.10
2023-04-20T14:55:04.071Z,36.41
2023-04-20T14:57:31.547Z,37.67
2023-04-20T14:59:58.101Z,37.25
2023-04-20T15:02:24.851Z,38.51
2023-04-20T15:04:52.028Z,38.65
2023-04-20T15:07:19.206Z,39.03
2023-04-20T15:09:46.363Z,37.37
2023-04-20T15:12:12.968Z,36.60
2023-04-20T15:14:39.745Z,36.49
2023-04-20T15:17:06.319Z,36.16
2023-04-20T15:19:32.918Z,36.59
2023-04-20T15:22:01.408Z,36.76
2023-04-20T15:24:27.862Z,37.44
2023-04-20T15:26:54.447Z,39.81
2023-04-20T15:29:21.392Z,40.44
2023-04-20T15:31:48.058Z,40.34
2023-04-20T15:34:17.111Z,39.14
2023-04-20T15:36:44.099Z,38.35
2023-04-20T15:39:10.710Z,38.17
2023-04-20T15:41:37.335Z,38.13
2023-04-20T15:44:04.110Z,36.94
2023-04-20T15:46:31.057Z,36.60
2023-04-20T15:48:57.650Z,36.73
2023-04-20T15:51:24.878Z,36.39
2023-04-20T15:53:51.865Z,36.73
2023-04-20T15:56:18.790Z,37.12
2023-04-20T15:58:46.059Z,37.76
2023-04-20T16:01:12.536Z,39.10
2023-04-20T16:03:39.603Z,40.88
2023-04-20T16:06:07.220Z,41.69
2023-04-20T16:08:33.804Z,41.65
2023-04-20T16:11:00.320Z,39.55
2023-04-20T16:13:27.162Z,38.37
2023-04-20T16:15:56.392Z,37.81
2023-04-20T16:18:24.277Z,38.44
2023-04-20T16:20:50.854Z,38.52
2023-04-20T16:23:17.324Z,38.16
2023-04-20T16:25:43.875Z,36.93
2023-04-20T16:28:10.561Z,37.73
2023-04-20T16:30:37.171Z,38.74
2023-04-20T16:33:03.782Z,39.72
2023-04-20T16:35:30.359Z,38.52
2023-04-20T16:37:57.538Z,38.00
2023-04-20T16:40:26.183Z,38.07
2023-04-20T16:42:52.770Z,37.83
2023-04-20T16:45:19.610Z,38.99
2023-04-20T16:47:46.701Z,39.65
2023-04-20T16:50:19.174Z,39.93
2023-04-20T16:52:49.380Z,40.65
2023-04-20T16:55:16.073Z,41.33
2023-04-20T16:57:42.648Z,42.19
2023-04-20T17:00:10.714Z,42.73
2023-04-20T17:02:38.582Z,43.34
2023-04-20T17:05:06.253Z,43.92
2023-04-20T17:07:32.974Z,44.03
2023-04-20T17:10:00.214Z,44.15
2023-04-20T17:12:26.778Z,44.33
2023-04-20T17:14:53.284Z,44.94
2023-04-20T17:17:19.799Z,46.01
2023-04-20T17:19:47.498Z,48.43
2023-04-20T17:22:14.160Z,49.96
2023-04-20T17:24:41.008Z,52.28
2023-04-20T17:27:07.478Z,52.89
2023-04-20T17:29:38.230Z,52.76
2023-04-20T17:32:05.847Z,52.71
2023-04-20T17:34:32.525Z,52.87
2023-04-20T17:36:59.015Z,54.03
2023-04-20T17:39:26.112Z,57.61
2023-04-20T17:41:52.710Z,61.45
2023-04-20T17:44:20.201Z,62.17
2023-04-20T17:46:46.980Z,62.52
2023-04-20T17:49:13.570Z,62.40
2023-04-20T17:51:40.132Z,62.66
2023-04-20T17:57:36.329Z,64.99
2023-04-20T18:00:04.956Z,65.58
2023-04-20T18:02:31.679Z,65.74
2023-04-20T18:05:00.871Z,65.45
2023-04-20T18:07:28.024Z,64.96
2023-04-20T18:09:54.530Z,65.05
2023-04-20T18:12:21.033Z,65.00
2023-04-20T18:14:47.651Z,64.79
2023-04-20T18:17:14.889Z,64.75
2023-04-20T18:19:41.404Z,64.87
2023-04-20T18:22:08.775Z,64.85
2023-04-20T18:24:35.202Z,65.43
2023-04-20T18:27:01.903Z,65.51
2023-04-20T18:29:28.998Z,65.60
2023-04-20T18:31:59.081Z,66.17
2023-04-20T18:34:29.844Z,67.44
2023-04-20T18:36:57.040Z,68.22
2023-04-20T18:39:24.928Z,69.02
2023-04-20T18:41:51.396Z,69.26
2023-04-20T18:44:17.972Z,69.13
2023-04-20T18:46:44.756Z,69.44
2023-04-20T18:49:11.599Z,69.30
2023-04-20T18:51:38.276Z,69.28
2023-04-20T18:54:05.233Z,69.08
2023-04-20T18:56:32.203Z,68.30
2023-04-20T18:58:59.449Z,67.81
2023-04-20T19:01:27.154Z,67.22
2023-04-20T19:03:54.716Z,67.48
2023-04-20T19:06:21.240Z,67.23
2023-04-20T19:08:47.716Z,67.38
2023-04-20T19:11:14.115Z,67.14
2023-04-20T19:13:44.421Z,67.11
2023-04-20T19:16:12.403Z,66.64
2023-04-20T19:18:39.401Z,66.67
2023-04-20T19:21:05.962Z,66.64
2023-04-20T19:23:32.469Z,66.83
2023-04-20T19:25:59.006Z,66.81
2023-04-20T19:28:25.526Z,66.83
2023-04-20T19:30:51.945Z,66.56
2023-04-20T19:33:18.545Z,66.87
2023-04-20T19:35:50.431Z,66.83
2023-04-20T19:38:21.600Z,68.13
2023-04-20T19:40:49.371Z,69.23
2023-04-20T19:43:16.937Z,69.71
2023-04-20T19:45:44.038Z,70.39
2023-04-20T19:48:10.728Z,70.05
2023-04-20T19:50:37.394Z,70.12
2023-04-20T19:53:04.142Z,70.04
2023-04-20T19:55:30.689Z,70.55
2023-04-20T19:57:57.145Z,71.65
2023-04-20T20:00:23.588Z,71.29
2023-04-20T20:02:50.197Z,72.44
2023-04-20T20:05:16.927Z,73.08
2023-04-20T20:07:43.486Z,72.98
2023-04-20T20:10:10.374Z,73.35
2023-04-20T20:12:36.860Z,74.08
2023-04-20T20:15:04.593Z,74.45
2023-04-20T20:17:31.111Z,74.56
2023-04-20T20:19:58.041Z,74.88
2023-04-20T20:22:24.505Z,74.81
2023-04-20T20:24:54.084Z,75.33
2023-04-20T20:27:21.201Z,75.53
2023-04-20T20:29:47.640Z,75.94
2023-04-20T20:32:14.959Z,76.24
2023-04-20T20:34:41.728Z,77.02
2023-04-20T20:37:10.551Z,77.96
2023-04-20T20:39:37.353Z,78.74
2023-04-20T20:42:04.584Z,79.08
2023-04-20T20:44:34.163Z,80.61
2023-04-20T20:47:01.119Z,81.45
2023-04-20T20:49:27.726Z,82.10
2023-04-20T20:51:54.243Z,82.17
2023-04-20T20:54:20.818Z,82.44
2023-04-20T20:56:47.308Z,82.78
2023-04-20T20:59:13.769Z,84.21
2023-04-20T21:01:40.541Z,84.90
2023-04-20T21:04:07.249Z,85.29
2023-04-20T21:06:33.811Z,85.90
2023-04-20T21:09:00.967Z,86.30
2023-04-20T21:11:27.350Z,86.28
2023-04-20T21:13:54.323Z,86.68
2023-04-20T21:16:20.821Z,87.15
2023-04-20T21:18:47.343Z,86.95
2023-04-20T21:21:13.766Z,87.17
2023-04-20T21:23:40.198Z,87.31
2023-04-20T21:26:06.624Z,87.51
2023-04-20T21:28:33.047Z,87.72
2023-04-20T21:30:59.812Z,87.85
2023-04-20T21:33:26.321Z,88.11
2023-04-20T21:35:52.724Z,88.11
2023-04-20T21:38:19.192Z,88.46
2023-04-20T21:40:45.712Z,88.69
2023-04-20T21:43:12.107Z,88.63
2023-04-20T21:45:38.552Z,88.51
2023-04-20T21:48:05.196Z,88.56
2023-04-20T21:50:31.652Z,88.56
2023-04-20T21:52:58.086Z,88.62
2023-04-20T21:55:24.557Z,88.46
2023-04-20T21:57:51.157Z,88.49
2023-04-20T22:00:18.183Z,88.37
2023-04-20T22:02:44.892Z,88.24
2023-04-20T22:05:11.922Z,88.48
2023-04-20T22:07:39.093Z,88.42
2023-04-20T22:10:06.894Z,88.23
2023-04-20T22:12:40.255Z,87.89
2023-04-20T22:15:09.495Z,87.82
2023-04-20T22:17:37.711Z,87.79
2023-04-20T22:20:07.555Z,87.89
2023-04-20T22:22:35.234Z,88.38
2023-04-20T22:25:03.031Z,88.04
2023-04-20T22:27:29.893Z,88.04
2023-04-20T22:29:56.331Z,88.08
2023-04-20T22:32:22.986Z,88.56
2023-04-20T22:34:49.400Z,88.43
2023-04-20T22:37:15.927Z,88.29
2023-04-20T22:39:42.771Z,88.43
2023-04-20T22:42:09.196Z,88.66
2023-04-20T22:44:35.861Z,87.94
2023-04-20T22:47:02.491Z,88.15
2023-04-20T22:49:29.501Z,88.00
2023-04-20T22:51:57.452Z,88.11
2023-04-20T22:54:24.586Z,88.45
2023-04-20T22:56:51.265Z,88.52
2023-04-20T22:59:17.865Z,88.94
2023-04-20T23:01:44.523Z,88.68
2023-04-20T23:04:11.102Z,88.88
2023-04-20T23:06:37.801Z,88.95
2023-04-20T23:09:07.638Z,89.13
2023-04-20T23:11:38.779Z,89.19
2023-04-20T23:14:06.427Z,89.16
2023-04-20T23:16:33.635Z,89.24
2023-04-20T23:19:00.563Z,89.17
2023-04-20T23:21:28.522Z,88.76
2023-04-20T23:23:57.723Z,89.17
2023-04-20T23:26:24.853Z,89.50
2023-04-20T23:28:53.118Z,89.41
2023-04-20T23:31:20.413Z,89.62
2023-04-20T23:33:47.768Z,89.64
2023-04-20T23:36:14.734Z,89.76
2023-04-20T23:38:41.207Z,89.63
2023-04-20T23:41:09.250Z,89.91
2023-04-20T23:43:35.939Z,90.13
2023-04-20T23:46:02.426Z,90.24
2023-04-20T23:48:28.899Z,90.04
2023-04-20T23:50:56.491Z,90.07
2023-04-20T23:53:23.176Z,89.93
2023-04-20T23:55:52.071Z,89.91
